Nearby METAR Reports

 

KMQS - Coatesville, Pennsylvania, USA
Distance from station: NW 12mi, 19km
Updated: Mon, 21-Jun-2021 5:35pm EDT
Clear
Clear
 Wind from varies
Wind: varies 7 mph , 11 km/h
Temperature: 84°F , 29°C
Heat Index: 89°F , 32°C
Dew Point: 72°F , 22°C
Humidity: 66%
Barometer: 29.65 inHg , 1004.1 hPa
Clouds: Clear
Visibility: 10 miles , 16 km
2021/06/21 21:35 KMQS 212135Z AUTO VRB06KT 10SM CLR 29/22 A2965 RMK AO2
KOQN - West Chester, Pennsylvania, USA
Distance from station: NE 13mi, 21km
Updated: Mon, 21-Jun-2021 1:55pm EDT
NOT Current
Mostly cloudy
Mostly cloudy
 Wind from SSW
Wind: SSW 3 mph , 6 km/h
Temperature: 86°F , 30°C
Heat Index: 92°F , 33°C
Dew Point: 72°F , 22°C
Humidity: 62%
Barometer: 29.70 inHg , 1005.8 hPa
Clouds: Mostly cloudy
Visibility: 10 miles , 16 km
Cloud details: Partly cloudy 2900 ft
Mostly cloudy 3800 ft
Mostly cloudy 4400 ft
2021/06/21 17:55 KOQN 211755Z AUTO 21003KT 10SM SCT029 BKN038 BKN044 30/22 A2970 RMK AO2
 
KILG - Wilmington, Delaware, USA
Distance from station: SSE 14mi, 23km
Updated: Mon, 21-Jun-2021 4:51pm EDT
Clear
Clear
 Wind from SSE
Wind: SSE 17 mph , 28 km/h
Temperature: 84°F , 29°C
Heat Index: 90°F , 32°C
Dew Point: 73°F , 23°C
Humidity: 70%
Barometer: 29.63 inHg , 1003.4 hPa
Clouds: Clear
Visibility: 10 miles , 16 km
2021/06/21 20:51 KILG 212051Z 16015KT 10SM CLR 29/23 A2963 RMK AO2 SLP033 T02940233 58020
KPHL - Philadelphia, Pennsylvania, USA
Distance from station: E 27mi, 43km
Updated: Mon, 21-Jun-2021 4:54pm EDT
Partly cloudy
Partly cloudy
 Wind from S
Wind: S 14 mph , 22 km/h
Temperature: 88°F , 31°C
Heat Index: 96°F , 36°C
Dew Point: 73°F , 23°C
Humidity: 62%
Barometer: 29.63 inHg , 1003.4 hPa
Clouds: Partly cloudy
Visibility: 10 miles , 16 km
Cloud details: Partly cloudy 4000 ft
Partly cloudy 15000 ft
2021/06/21 20:54 KPHL 212054Z 18012KT 10SM SCT040 SCT150 31/23 A2963 RMK AO2 SLP032 T03110228 56020
 
KPTW - Pottstown, Pennsylvania, USA
Distance from station: NNE 29mi, 47km
Updated: Mon, 21-Jun-2021 4:54pm EDT
Few Clouds
Few Clouds
 Wind from SSW
Wind: SSW 9 mph , 15 km/h, Gust: 16 mph , 26 km/h
Temperature: 88°F , 31°C
Heat Index: 93°F , 34°C
Dew Point: 70°F , 21°C
Humidity: 55%
Barometer: 29.63 inHg , 1003.4 hPa
Clouds: Few Clouds
Cloud details: Few Clouds 4100 ft
2021/06/21 20:54 KPTW 212054Z AUTO 20008G14KT FEW041 31/21 A2963 RMK AO2 SLP029 T03060211 56023
KLOM - Philly Wings F, Pennsylvania, USA
Distance from station: NE 32mi, 52km
Updated: Mon, 21-Jun-2021 5:35pm EDT
Partly cloudy
Partly cloudy
 Wind from SSE
Wind: SSE 13 mph , 20 km/h, Gust: 18 mph , 30 km/h
Temperature: 86°F , 30°C
Heat Index: 93°F , 34°C
Dew Point: 73°F , 23°C
Humidity: 66%
Barometer: 29.60 inHg , 1002.4 hPa
Clouds: Partly cloudy
Visibility: 10 miles , 16 km
Cloud details: Partly cloudy 3700 ft
2021/06/21 21:35 KLOM 212135Z AUTO 16011G16KT 10SM SCT037 30/23 A2960 RMK AO2 T03030232
 
KAPG - Aberdeen/Phillip, Maryland, USA
Distance from station: SW 34mi, 55km
Updated: Mon, 21-Jun-2021 4:58pm EDT
Clear
Clear
 Wind from S
Wind: S 9 mph , 15 km/h
Temperature: 88°F , 31°C
Heat Index: 98°F , 37°C
Dew Point: 75°F , 24°C
Humidity: 66%
Barometer: 29.59 inHg , 1002 hPa
Clouds: Clear
Visibility: 10 miles , 16 km
2021/06/21 20:58 KAPG 212058Z AUTO 17008KT 10SM CLR 31/24 A2959 RMK AO2 SLP023 T03090235 57024 $
KLNS - Lancaster, Pennsylvania, USA
Distance from station: WNW 35mi, 57km
Updated: Mon, 21-Jun-2021 4:53pm EDT
Few Clouds
Few Clouds
 Wind from S
Wind: S 15 mph , 24 km/h
Temperature: 90°F , 32°C
Heat Index: 97°F , 36°C
Dew Point: 72°F , 22°C
Humidity: 55%
Barometer: 29.59 inHg , 1002 hPa
Clouds: Few Clouds
Visibility: 10 miles , 16 km
Cloud details: Few Clouds 3500 ft
Few Clouds 4500 ft
2021/06/21 20:53 KLNS 212053Z 17013KT 10SM FEW035 FEW045 32/22 A2959 RMK AO2 SLP016 T03220222 56025
 
KRDG - Reading, Pennsylvania, USA
Distance from station: NNW 38mi, 62km
Updated: Mon, 21-Jun-2021 4:54pm EDT
Clear
Clear
 Wind from S
Wind: S 14 mph , 22 km/h, Gust: 21 mph , 33 km/h
Temperature: 90°F , 32°C
Heat Index: 99°F , 37°C
Dew Point: 73°F , 23°C
Humidity: 59%
Barometer: 29.58 inHg , 1001.7 hPa
Clouds: Clear
Visibility: 10 miles , 16 km
2021/06/21 20:54 KRDG 212054Z 18012G18KT 10SM CLR 32/23 A2958 RMK AO2 SLP017 T03220228 56024
KPNE - Philadelphia/Ne, Pennsylvania, USA
Distance from station: ENE 42mi, 67km
Updated: Mon, 21-Jun-2021 4:54pm EDT
Few Clouds
Few Clouds
 Wind from SSW
Wind: SSW 9 mph , 15 km/h, Gust: 18 mph , 30 km/h
Temperature: 88°F , 31°C
Heat Index: 95°F , 35°C
Dew Point: 72°F , 22°C
Humidity: 59%
Barometer: 29.64 inHg , 1003.7 hPa
Clouds: Few Clouds
Visibility: 10 miles , 16 km
Cloud details: Few Clouds 3900 ft
2021/06/21 20:54 KPNE 212054Z 21008G16KT 10SM FEW039 31/22 A2964 RMK AO2 SLP036 T03110217 56018
 
KCKZ - Perkasie, Pennsylvania, USA
Distance from station: NNE 45mi, 72km
Updated: Mon, 21-Jun-2021 5:35pm EDT
Few Clouds
Few Clouds
 Wind from SSW
Wind: SSW 7 mph , 11 km/h
Temperature: 86°F , 30°C
Heat Index: 92°F , 33°C
Dew Point: 72°F , 22°C
Humidity: 62%
Barometer: 29.60 inHg , 1002.4 hPa
Clouds: Few Clouds
Visibility: 10 miles , 16 km
Cloud details: Few Clouds 3600 ft
2021/06/21 21:35 KCKZ 212135Z AUTO 20006KT 10SM FEW036 30/22 A2960 RMK AO2
KUKT - Quakertown Arp, Pennsylvania, USA
Distance from station: NNE 45mi, 73km
Updated: Mon, 21-Jun-2021 5:35pm EDT
Clear
Clear
 Wind from S
Wind: S 10 mph , 17 km/h
Temperature: 88°F , 31°C
Heat Index: 96°F , 36°C
Dew Point: 73°F , 23°C
Humidity: 62%
Barometer: 29.59 inHg , 1002 hPa
Clouds: Clear
Visibility: 10 miles , 16 km
2021/06/21 21:35 KUKT 212135Z AUTO 17009KT 150V210 10SM CLR 31/23 A2959 RMK A01
 
KDYL - Doylestown, Pennsylvania, USA
Distance from station: NE 47mi, 76km
Updated: Fri, 18-Jun-2021 11:54pm EDT
NOT Current
Clear
Clear
 Wind from SSW
Wind: SSW 7 mph , 11 km/h
Temperature: 73°F , 23°C
Dew Point: 57°F , 14°C
Humidity: 57%
Barometer: 29.86 inHg , 1011.2 hPa
Clouds: Clear
Visibility: 10 miles , 16 km
2021/06/19 03:54 KDYL 190354Z AUTO 20006KT 10SM CLR 23/14 A2986 RMK AO2 SLP107 T02280139
KMIV - Millville, New Jersey, USA
Distance from station: SE 48mi, 77km
Updated: Mon, 21-Jun-2021 4:54pm EDT
Clear
Clear
 Wind from SSE
Wind: SSE 9 mph , 15 km/h
Temperature: 84°F , 29°C
Heat Index: 89°F , 32°C
Dew Point: 72°F , 22°C
Humidity: 66%
Barometer: 29.66 inHg , 1004.4 hPa
Clouds: Clear
Visibility: 10 miles , 16 km
2021/06/21 20:54 KMIV 212054Z AUTO 15008KT 10SM CLR 29/22 A2966 RMK AO2 SLP041 T02890222 56016
 
KVAY - Mount Holly, New Jersey, USA
Distance from station: E 48mi, 78km
Updated: Mon, 21-Jun-2021 4:54pm EDT
Few Clouds
Few Clouds
 Wind from varies
Wind: varies 7 mph , 11 km/h
Temperature: 88°F , 31°C
Heat Index: 96°F , 36°C
Dew Point: 73°F , 23°C
Humidity: 62%
Barometer: 29.63 inHg , 1003.4 hPa
Clouds: Few Clouds
Visibility: 10 miles , 16 km
Cloud details: Few Clouds 4600 ft
2021/06/21 20:54 KVAY 212054Z AUTO VRB06KT 10SM FEW046 31/23 A2963 RMK AO2 SLP033 T03110228 56017